sensor_id;sensor_type;location;lat;lon;timestamp;temperature;humidity
37594;DHT22;23441;50.856;6.076;2023-12-07T00:00:26;2.70;99.90
37594;DHT22;23441;50.856;6.076;2023-12-07T00:03:12;2.60;99.90
37594;DHT22;23441;50.856;6.076;2023-12-07T00:05:58;2.60;99.90
37594;DHT22;23441;50.856;6.076;2023-12-07T00:08:44;2.70;99.90
37594;DHT22;23441;50.856;6.076;2023-12-07T00:11:29;2.60;99.90
37594;DHT22;23441;50.856;6.076;2023-12-07T00:14:16;2.60;99.90
37594;DHT22;23441;50.856;6.076;2023-12-07T00:17:02;2.50;99.90
37594;DHT22;23441;50.856;6.076;2023-12-07T00:19:50;2.50;99.90
37594;DHT22;23441;50.856;6.076;2023-12-07T00:22:39;2.60;99.90
37594;DHT22;23441;50.856;6.076;2023-12-07T00:25:34;2.50;99.90
37594;DHT22;23441;50.856;6.076;2023-12-07T00:28:20;2.40;99.90
37594;DHT22;23441;50.856;6.076;2023-12-07T00:31:06;2.30;99.90
37594;DHT22;23441;50.856;6.076;2023-12-07T00:33:51;2.30;99.90
37594;DHT22;23441;50.856;6.076;2023-12-07T00:36:37;2.20;99.90
37594;DHT22;23441;50.856;6.076;2023-12-07T00:39:26;2.10;99.90
37594;DHT22;23441;50.856;6.076;2023-12-07T00:42:12;2.10;99.90
37594;DHT22;23441;50.856;6.076;2023-12-07T00:44:58;2.00;99.90
37594;DHT22;23441;50.856;6.076;2023-12-07T00:47:44;1.90;99.90
37594;DHT22;23441;50.856;6.076;2023-12-07T00:50:30;1.90;99.90
37594;DHT22;23441;50.856;6.076;2023-12-07T00:53:16;2.00;99.90
37594;DHT22;23441;50.856;6.076;2023-12-07T00:56:03;2.10;99.90
37594;DHT22;23441;50.856;6.076;2023-12-07T00:58:50;2.10;99.90
37594;DHT22;23441;50.856;6.076;2023-12-07T01:01:35;2.20;99.90
37594;DHT22;23441;50.856;6.076;2023-12-07T01:04:24;2.10;99.90
37594;DHT22;23441;50.856;6.076;2023-12-07T01:07:10;2.00;99.90
37594;DHT22;23441;50.856;6.076;2023-12-07T01:09:56;1.90;99.90
37594;DHT22;23441;50.856;6.076;2023-12-07T01:12:42;1.80;99.90
37594;DHT22;23441;50.856;6.076;2023-12-07T01:15:28;1.70;99.90
37594;DHT22;23441;50.856;6.076;2023-12-07T01:18:14;1.70;99.90
37594;DHT22;23441;50.856;6.076;2023-12-07T01:21:00;1.80;99.90
37594;DHT22;23441;50.856;6.076;2023-12-07T01:23:45;1.80;99.90
37594;DHT22;23441;50.856;6.076;2023-12-07T01:26:31;1.80;99.90
37594;DHT22;23441;50.856;6.076;2023-12-07T01:29:17;1.80;99.90
37594;DHT22;23441;50.856;6.076;2023-12-07T01:32:04;1.70;99.90
37594;DHT22;23441;50.856;6.076;2023-12-07T01:34:51;1.60;99.90
37594;DHT22;23441;50.856;6.076;2023-12-07T01:37:37;1.60;99.90
37594;DHT22;23441;50.856;6.076;2023-12-07T01:40:23;1.50;99.90
37594;DHT22;23441;50.856;6.076;2023-12-07T01:43:09;1.50;99.90
37594;DHT22;23441;50.856;6.076;2023-12-07T01:45:57;1.60;99.90
37594;DHT22;23441;50.856;6.076;2023-12-07T01:48:43;1.60;99.90
37594;DHT22;23441;50.856;6.076;2023-12-07T01:51:29;1.50;99.90
37594;DHT22;23441;50.856;6.076;2023-12-07T01:54:16;1.60;99.90
37594;DHT22;23441;50.856;6.076;2023-12-07T01:57:02;1.60;99.90
37594;DHT22;23441;50.856;6.076;2023-12-07T01:59:49;1.60;99.90
37594;DHT22;23441;50.856;6.076;2023-12-07T02:02:35;1.50;99.90
37594;DHT22;23441;50.856;6.076;2023-12-07T02:05:22;1.40;99.90
37594;DHT22;23441;50.856;6.076;2023-12-07T02:08:10;1.20;99.90
37594;DHT22;23441;50.856;6.076;2023-12-07T02:10:56;1.10;99.90
37594;DHT22;23441;50.856;6.076;2023-12-07T02:13:42;1.00;99.90
37594;DHT22;23441;50.856;6.076;2023-12-07T02:16:39;0.90;99.90
37594;DHT22;23441;50.856;6.076;2023-12-07T02:22:54;0.80;99.90
37594;DHT22;23441;50.856;6.076;2023-12-07T02:29:39;0.80;99.90
37594;DHT22;23441;50.856;6.076;2023-12-07T02:32:25;0.80;99.90
37594;DHT22;23441;50.856;6.076;2023-12-07T02:35:12;0.70;99.90
37594;DHT22;23441;50.856;6.076;2023-12-07T02:37:58;0.70;99.90
37594;DHT22;23441;50.856;6.076;2023-12-07T02:40:46;0.70;99.90
37594;DHT22;23441;50.856;6.076;2023-12-07T02:43:34;0.60;99.90
37594;DHT22;23441;50.856;6.076;2023-12-07T02:46:20;0.60;99.90
37594;DHT22;23441;50.856;6.076;2023-12-07T02:49:06;0.50;99.90
37594;DHT22;23441;50.856;6.076;2023-12-07T02:51:52;0.50;99.90
37594;DHT22;23441;50.856;6.076;2023-12-07T02:54:38;0.50;99.90
37594;DHT22;23441;50.856;6.076;2023-12-07T02:57:24;0.40;99.90
37594;DHT22;23441;50.856;6.076;2023-12-07T03:00:10;0.50;99.90
37594;DHT22;23441;50.856;6.076;2023-12-07T03:02:59;0.60;99.90
37594;DHT22;23441;50.856;6.076;2023-12-07T03:05:45;0.70;99.90
37594;DHT22;23441;50.856;6.076;2023-12-07T03:08:31;0.70;99.90
37594;DHT22;23441;50.856;6.076;2023-12-07T03:11:17;0.70;99.90
37594;DHT22;23441;50.856;6.076;2023-12-07T03:14:03;0.80;99.90
37594;DHT22;23441;50.856;6.076;2023-12-07T03:16:49;0.90;99.90
37594;DHT22;23441;50.856;6.076;2023-12-07T03:19:39;0.80;99.90
37594;DHT22;23441;50.856;6.076;2023-12-07T03:22:25;0.70;99.90
37594;DHT22;23441;50.856;6.076;2023-12-07T03:25:11;0.60;99.90
37594;DHT22;23441;50.856;6.076;2023-12-07T03:27:57;0.40;99.90
37594;DHT22;23441;50.856;6.076;2023-12-07T03:30:42;0.40;99.90
37594;DHT22;23441;50.856;6.076;2023-12-07T03:33:29;0.40;99.90
37594;DHT22;23441;50.856;6.076;2023-12-07T03:36:15;0.30;99.90
37594;DHT22;23441;50.856;6.076;2023-12-07T03:39:01;0.40;99.90
37594;DHT22;23441;50.856;6.076;2023-12-07T03:41:49;0.30;99.90
37594;DHT22;23441;50.856;6.076;2023-12-07T03:44:35;0.30;99.90
37594;DHT22;23441;50.856;6.076;2023-12-07T03:47:20;0.30;99.90
37594;DHT22;23441;50.856;6.076;2023-12-07T03:50:07;0.30;99.90
37594;DHT22;23441;50.856;6.076;2023-12-07T03:52:53;0.20;99.90
37594;DHT22;23441;50.856;6.076;2023-12-07T03:55:38;0.20;99.90
37594;DHT22;23441;50.856;6.076;2023-12-07T03:58:24;0.10;99.90
37594;DHT22;23441;50.856;6.076;2023-12-07T04:01:10;0.10;99.90
37594;DHT22;23441;50.856;6.076;2023-12-07T04:03:56;0.00;99.90
37594;DHT22;23441;50.856;6.076;2023-12-07T04:06:43;-0.10;99.90
37594;DHT22;23441;50.856;6.076;2023-12-07T04:09:29;0.00;99.90
37594;DHT22;23441;50.856;6.076;2023-12-07T04:12:16;-0.10;99.90
37594;DHT22;23441;50.856;6.076;2023-12-07T04:15:02;-0.10;99.90
37594;DHT22;23441;50.856;6.076;2023-12-07T04:17:48;-0.10;99.90
37594;DHT22;23441;50.856;6.076;2023-12-07T04:20:34;-0.10;99.90
37594;DHT22;23441;50.856;6.076;2023-12-07T04:23:20;-0.10;99.90
37594;DHT22;23441;50.856;6.076;2023-12-07T04:26:06;-0.10;99.90
37594;DHT22;23441;50.856;6.076;2023-12-07T04:28:52;-0.20;99.90
37594;DHT22;23441;50.856;6.076;2023-12-07T04:31:38;-0.10;99.90
37594;DHT22;23441;50.856;6.076;2023-12-07T04:34:24;-0.20;99.90
37594;DHT22;23441;50.856;6.076;2023-12-07T04:37:10;-0.20;99.90
37594;DHT22;23441;50.856;6.076;2023-12-07T04:39:57;-0.20;99.90
37594;DHT22;23441;50.856;6.076;2023-12-07T04:42:43;-0.10;99.90
37594;DHT22;23441;50.856;6.076;2023-12-07T04:45:29;-0.10;99.90
37594;DHT22;23441;50.856;6.076;2023-12-07T04:48:14;-0.20;99.90
37594;DHT22;23441;50.856;6.076;2023-12-07T04:51:00;-0.20;99.90
37594;DHT22;23441;50.856;6.076;2023-12-07T04:53:47;-0.10;99.90
37594;DHT22;23441;50.856;6.076;2023-12-07T04:56:33;-0.10;99.90
37594;DHT22;23441;50.856;6.076;2023-12-07T04:59:19;-0.10;99.90
37594;DHT22;23441;50.856;6.076;2023-12-07T05:02:05;-0.10;99.90
37594;DHT22;23441;50.856;6.076;2023-12-07T05:04:50;-0.10;99.90
37594;DHT22;23441;50.856;6.076;2023-12-07T05:07:36;0.20;99.90
37594;DHT22;23441;50.856;6.076;2023-12-07T05:10:23;0.20;99.90
37594;DHT22;23441;50.856;6.076;2023-12-07T05:13:09;0.10;99.90
37594;DHT22;23441;50.856;6.076;2023-12-07T05:15:55;0.00;99.90
37594;DHT22;23441;50.856;6.076;2023-12-07T05:18:41;0.00;99.90
37594;DHT22;23441;50.856;6.076;2023-12-07T05:21:26;0.00;99.90
37594;DHT22;23441;50.856;6.076;2023-12-07T05:24:13;-0.10;99.90
37594;DHT22;23441;50.856;6.076;2023-12-07T05:26:59;-0.20;99.90
37594;DHT22;23441;50.856;6.076;2023-12-07T05:29:45;-0.20;99.90
37594;DHT22;23441;50.856;6.076;2023-12-07T05:32:31;-0.20;99.90
37594;DHT22;23441;50.856;6.076;2023-12-07T05:35:17;-0.30;99.90
37594;DHT22;23441;50.856;6.076;2023-12-07T05:38:02;-0.30;99.90
37594;DHT22;23441;50.856;6.076;2023-12-07T05:40:48;-0.40;99.90
37594;DHT22;23441;50.856;6.076;2023-12-07T05:43:34;-0.50;99.90
37594;DHT22;23441;50.856;6.076;2023-12-07T05:46:20;-0.60;99.90
37594;DHT22;23441;50.856;6.076;2023-12-07T05:49:06;-0.60;99.90
37594;DHT22;23441;50.856;6.076;2023-12-07T05:51:52;-0.70;99.90
37594;DHT22;23441;50.856;6.076;2023-12-07T05:54:39;-0.70;99.90
37594;DHT22;23441;50.856;6.076;2023-12-07T05:57:27;-0.80;99.90
37594;DHT22;23441;50.856;6.076;2023-12-07T06:00:14;-0.80;99.90
37594;DHT22;23441;50.856;6.076;2023-12-07T06:03:01;-0.80;99.90
37594;DHT22;23441;50.856;6.076;2023-12-07T06:05:48;-0.90;99.90
37594;DHT22;23441;50.856;6.076;2023-12-07T06:08:35;-0.90;99.90
37594;DHT22;23441;50.856;6.076;2023-12-07T06:11:20;-0.90;99.90
37594;DHT22;23441;50.856;6.076;2023-12-07T06:14:06;-0.90;99.90
37594;DHT22;23441;50.856;6.076;2023-12-07T06:16:53;-0.90;99.90
37594;DHT22;23441;50.856;6.076;2023-12-07T06:19:39;-0.90;99.90
37594;DHT22;23441;50.856;6.076;2023-12-07T06:22:25;-0.90;99.90
37594;DHT22;23441;50.856;6.076;2023-12-07T06:25:11;-0.90;99.90
37594;DHT22;23441;50.856;6.076;2023-12-07T06:27:57;-0.90;99.90
37594;DHT22;23441;50.856;6.076;2023-12-07T06:30:43;-0.90;99.90
37594;DHT22;23441;50.856;6.076;2023-12-07T06:33:29;-0.90;99.90
37594;DHT22;23441;50.856;6.076;2023-12-07T06:36:22;-0.90;99.90
37594;DHT22;23441;50.856;6.076;2023-12-07T06:39:08;-0.90;99.90
37594;DHT22;23441;50.856;6.076;2023-12-07T06:41:54;-1.00;99.90
37594;DHT22;23441;50.856;6.076;2023-12-07T06:44:45;-0.90;99.90
37594;DHT22;23441;50.856;6.076;2023-12-07T06:47:31;-0.90;99.90
37594;DHT22;23441;50.856;6.076;2023-12-07T06:50:17;-0.90;99.90
37594;DHT22;23441;50.856;6.076;2023-12-07T06:53:03;-0.90;99.90
37594;DHT22;23441;50.856;6.076;2023-12-07T06:55:49;-0.90;99.90
37594;DHT22;23441;50.856;6.076;2023-12-07T06:58:35;-0.80;99.90
37594;DHT22;23441;50.856;6.076;2023-12-07T07:01:21;-0.70;99.90
37594;DHT22;23441;50.856;6.076;2023-12-07T07:04:07;-0.70;99.90
37594;DHT22;23441;50.856;6.076;2023-12-07T07:06:54;-0.70;99.90
37594;DHT22;23441;50.856;6.076;2023-12-07T07:09:40;-0.70;99.90
37594;DHT22;23441;50.856;6.076;2023-12-07T07:12:26;-0.70;99.90
37594;DHT22;23441;50.856;6.076;2023-12-07T07:15:12;-0.70;99.90
37594;DHT22;23441;50.856;6.076;2023-12-07T07:17:58;-0.70;99.90
37594;DHT22;23441;50.856;6.076;2023-12-07T07:20:44;-0.60;99.90
37594;DHT22;23441;50.856;6.076;2023-12-07T07:23:30;-0.70;99.90
37594;DHT22;23441;50.856;6.076;2023-12-07T07:26:16;-0.70;99.90
37594;DHT22;23441;50.856;6.076;2023-12-07T07:29:03;-0.60;99.90
37594;DHT22;23441;50.856;6.076;2023-12-07T07:31:49;-0.60;99.90
37594;DHT22;23441;50.856;6.076;2023-12-07T07:34:35;-0.60;99.90
37594;DHT22;23441;50.856;6.076;2023-12-07T07:37:22;-0.60;99.90
37594;DHT22;23441;50.856;6.076;2023-12-07T07:40:09;-0.70;99.90
37594;DHT22;23441;50.856;6.076;2023-12-07T07:42:57;-0.60;99.90
37594;DHT22;23441;50.856;6.076;2023-12-07T07:45:43;-0.60;99.90
37594;DHT22;23441;50.856;6.076;2023-12-07T07:48:29;-0.50;99.90
37594;DHT22;23441;50.856;6.076;2023-12-07T07:51:15;-0.50;99.90
37594;DHT22;23441;50.856;6.076;2023-12-07T07:54:01;-0.40;99.90
37594;DHT22;23441;50.856;6.076;2023-12-07T07:56:47;-0.40;99.90
37594;DHT22;23441;50.856;6.076;2023-12-07T07:59:32;-0.40;99.90
37594;DHT22;23441;50.856;6.076;2023-12-07T08:02:20;-0.30;99.90
37594;DHT22;23441;50.856;6.076;2023-12-07T08:05:07;-0.30;99.90
37594;DHT22;23441;50.856;6.076;2023-12-07T08:07:53;-0.20;99.90
37594;DHT22;23441;50.856;6.076;2023-12-07T08:10:39;-0.10;99.90
37594;DHT22;23441;50.856;6.076;2023-12-07T08:13:25;-0.10;99.90
37594;DHT22;23441;50.856;6.076;2023-12-07T08:16:11;0.00;99.90
37594;DHT22;23441;50.856;6.076;2023-12-07T08:18:57;0.10;99.90
37594;DHT22;23441;50.856;6.076;2023-12-07T08:21:44;0.10;99.90
37594;DHT22;23441;50.856;6.076;2023-12-07T08:24:30;0.20;99.90
37594;DHT22;23441;50.856;6.076;2023-12-07T08:27:16;0.20;99.90
37594;DHT22;23441;50.856;6.076;2023-12-07T08:30:02;0.20;99.90
37594;DHT22;23441;50.856;6.076;2023-12-07T08:32:48;0.30;99.90
37594;DHT22;23441;50.856;6.076;2023-12-07T08:35:34;0.40;99.90
37594;DHT22;23441;50.856;6.076;2023-12-07T08:38:20;0.50;99.90
37594;DHT22;23441;50.856;6.076;2023-12-07T08:41:08;0.50;99.90
37594;DHT22;23441;50.856;6.076;2023-12-07T08:43:54;0.50;99.90
37594;DHT22;23441;50.856;6.076;2023-12-07T08:46:40;0.50;99.90
37594;DHT22;23441;50.856;6.076;2023-12-07T08:49:27;0.50;99.90
37594;DHT22;23441;50.856;6.076;2023-12-07T08:52:13;0.50;99.90
37594;DHT22;23441;50.856;6.076;2023-12-07T08:54:59;0.60;99.90
37594;DHT22;23441;50.856;6.076;2023-12-07T08:57:45;0.60;99.90
37594;DHT22;23441;50.856;6.076;2023-12-07T09:00:32;0.70;99.90
37594;DHT22;23441;50.856;6.076;2023-12-07T09:03:18;0.80;99.90
37594;DHT22;23441;50.856;6.076;2023-12-07T09:06:04;0.70;99.90
37594;DHT22;23441;50.856;6.076;2023-12-07T09:08:51;0.80;99.90
37594;DHT22;23441;50.856;6.076;2023-12-07T09:11:37;0.80;99.90
37594;DHT22;23441;50.856;6.076;2023-12-07T09:14:23;0.90;99.90
37594;DHT22;23441;50.856;6.076;2023-12-07T09:17:09;1.00;99.90
37594;DHT22;23441;50.856;6.076;2023-12-07T09:19:55;1.00;99.90
37594;DHT22;23441;50.856;6.076;2023-12-07T09:22:45;1.10;99.90
37594;DHT22;23441;50.856;6.076;2023-12-07T09:25:31;1.20;99.90
37594;DHT22;23441;50.856;6.076;2023-12-07T09:28:17;1.20;99.90
37594;DHT22;23441;50.856;6.076;2023-12-07T09:31:03;1.30;99.90
37594;DHT22;23441;50.856;6.076;2023-12-07T09:33:49;1.40;99.90
37594;DHT22;23441;50.856;6.076;2023-12-07T09:36:35;1.50;99.90
37594;DHT22;23441;50.856;6.076;2023-12-07T09:39:21;1.50;99.90
37594;DHT22;23441;50.856;6.076;2023-12-07T09:42:07;1.60;99.90
37594;DHT22;23441;50.856;6.076;2023-12-07T09:44:54;1.60;99.90
37594;DHT22;23441;50.856;6.076;2023-12-07T09:47:41;1.70;99.90
37594;DHT22;23441;50.856;6.076;2023-12-07T09:50:28;1.80;99.90
37594;DHT22;23441;50.856;6.076;2023-12-07T09:53:14;1.80;99.90
37594;DHT22;23441;50.856;6.076;2023-12-07T09:56:00;1.90;99.90
37594;DHT22;23441;50.856;6.076;2023-12-07T09:58:46;1.90;99.90
37594;DHT22;23441;50.856;6.076;2023-12-07T10:01:32;1.90;99.90
37594;DHT22;23441;50.856;6.076;2023-12-07T10:04:22;2.00;99.90
37594;DHT22;23441;50.856;6.076;2023-12-07T10:07:09;2.20;99.90
37594;DHT22;23441;50.856;6.076;2023-12-07T10:09:55;2.20;99.90
37594;DHT22;23441;50.856;6.076;2023-12-07T10:12:51;2.30;99.90
37594;DHT22;23441;50.856;6.076;2023-12-07T10:15:38;2.40;99.90
37594;DHT22;23441;50.856;6.076;2023-12-07T10:18:24;2.40;99.90
37594;DHT22;23441;50.856;6.076;2023-12-07T10:21:10;2.40;99.90
37594;DHT22;23441;50.856;6.076;2023-12-07T10:23:56;2.50;99.90
37594;DHT22;23441;50.856;6.076;2023-12-07T10:26:43;2.50;99.90
37594;DHT22;23441;50.856;6.076;2023-12-07T10:29:29;2.60;99.90
37594;DHT22;23441;50.856;6.076;2023-12-07T10:32:15;2.70;99.90
37594;DHT22;23441;50.856;6.076;2023-12-07T10:35:01;2.70;99.90
37594;DHT22;23441;50.856;6.076;2023-12-07T10:37:48;2.70;99.90
37594;DHT22;23441;50.856;6.076;2023-12-07T10:40:34;2.70;99.90
37594;DHT22;23441;50.856;6.076;2023-12-07T10:43:20;2.80;99.90
37594;DHT22;23441;50.856;6.076;2023-12-07T10:46:09;2.90;99.90
37594;DHT22;23441;50.856;6.076;2023-12-07T10:49:00;3.00;99.90
37594;DHT22;23441;50.856;6.076;2023-12-07T10:51:56;3.10;99.90
37594;DHT22;23441;50.856;6.076;2023-12-07T10:54:54;3.10;99.90
37594;DHT22;23441;50.856;6.076;2023-12-07T10:57:42;3.20;99.90
37594;DHT22;23441;50.856;6.076;2023-12-07T11:00:29;3.30;99.90
37594;DHT22;23441;50.856;6.076;2023-12-07T11:03:16;3.30;99.90
37594;DHT22;23441;50.856;6.076;2023-12-07T11:06:07;3.40;99.90
37594;DHT22;23441;50.856;6.076;2023-12-07T11:08:59;3.40;99.90
37594;DHT22;23441;50.856;6.076;2023-12-07T11:11:54;3.40;99.90
37594;DHT22;23441;50.856;6.076;2023-12-07T11:14:42;3.40;99.90
37594;DHT22;23441;50.856;6.076;2023-12-07T11:17:29;3.40;99.90
37594;DHT22;23441;50.856;6.076;2023-12-07T11:20:19;3.50;99.90
37594;DHT22;23441;50.856;6.076;2023-12-07T11:23:05;3.60;99.90
37594;DHT22;23441;50.856;6.076;2023-12-07T11:25:53;3.70;99.90
37594;DHT22;23441;50.856;6.076;2023-12-07T11:28:40;3.80;99.90
37594;DHT22;23441;50.856;6.076;2023-12-07T11:31:27;4.10;99.90
37594;DHT22;23441;50.856;6.076;2023-12-07T11:34:13;4.30;99.90
37594;DHT22;23441;50.856;6.076;2023-12-07T11:36:59;4.40;99.90
37594;DHT22;23441;50.856;6.076;2023-12-07T11:39:45;4.40;99.90
37594;DHT22;23441;50.856;6.076;2023-12-07T11:42:31;4.40;99.90
37594;DHT22;23441;50.856;6.076;2023-12-07T11:45:42;4.40;99.90
37594;DHT22;23441;50.856;6.076;2023-12-07T11:48:32;4.30;99.90
37594;DHT22;23441;50.856;6.076;2023-12-07T11:51:18;4.30;99.90
37594;DHT22;23441;50.856;6.076;2023-12-07T11:54:04;4.40;99.90
37594;DHT22;23441;50.856;6.076;2023-12-07T11:56:57;4.40;99.90
37594;DHT22;23441;50.856;6.076;2023-12-07T11:59:47;4.40;99.90
37594;DHT22;23441;50.856;6.076;2023-12-07T12:02:33;4.40;99.90
37594;DHT22;23441;50.856;6.076;2023-12-07T12:05:22;4.40;99.90
37594;DHT22;23441;50.856;6.076;2023-12-07T12:08:08;4.50;99.90
37594;DHT22;23441;50.856;6.076;2023-12-07T12:10:54;4.50;99.90
37594;DHT22;23441;50.856;6.076;2023-12-07T12:13:45;4.50;99.90
37594;DHT22;23441;50.856;6.076;2023-12-07T12:16:32;4.50;99.90
37594;DHT22;23441;50.856;6.076;2023-12-07T12:19:20;4.50;99.90
37594;DHT22;23441;50.856;6.076;2023-12-07T12:22:05;4.50;99.90
37594;DHT22;23441;50.856;6.076;2023-12-07T12:24:52;4.40;99.90
37594;DHT22;23441;50.856;6.076;2023-12-07T12:27:38;4.40;99.90
37594;DHT22;23441;50.856;6.076;2023-12-07T12:30:24;4.40;99.90
37594;DHT22;23441;50.856;6.076;2023-12-07T12:33:11;4.40;99.90
37594;DHT22;23441;50.856;6.076;2023-12-07T12:36:07;4.40;99.90
37594;DHT22;23441;50.856;6.076;2023-12-07T12:38:54;4.40;99.90
37594;DHT22;23441;50.856;6.076;2023-12-07T12:41:41;4.40;99.90
37594;DHT22;23441;50.856;6.076;2023-12-07T12:44:27;4.40;99.90
37594;DHT22;23441;50.856;6.076;2023-12-07T12:47:14;4.40;99.90
37594;DHT22;23441;50.856;6.076;2023-12-07T12:50:00;4.40;99.90
37594;DHT22;23441;50.856;6.076;2023-12-07T12:52:46;4.60;99.90
37594;DHT22;23441;50.856;6.076;2023-12-07T12:55:37;4.60;99.90
37594;DHT22;23441;50.856;6.076;2023-12-07T12:58:24;4.60;99.90
37594;DHT22;23441;50.856;6.076;2023-12-07T13:01:10;4.60;99.90
37594;DHT22;23441;50.856;6.076;2023-12-07T13:03:56;4.50;99.90
37594;DHT22;23441;50.856;6.076;2023-12-07T13:06:43;4.50;99.90
37594;DHT22;23441;50.856;6.076;2023-12-07T13:09:29;4.50;99.90
37594;DHT22;23441;50.856;6.076;2023-12-07T13:12:15;4.60;99.90
37594;DHT22;23441;50.856;6.076;2023-12-07T13:15:01;4.50;99.90
37594;DHT22;23441;50.856;6.076;2023-12-07T13:17:47;4.50;99.90
37594;DHT22;23441;50.856;6.076;2023-12-07T13:20:34;4.40;99.90
37594;DHT22;23441;50.856;6.076;2023-12-07T13:23:21;4.40;99.90
37594;DHT22;23441;50.856;6.076;2023-12-07T13:26:07;4.40;99.90
37594;DHT22;23441;50.856;6.076;2023-12-07T13:28:52;4.40;99.90
37594;DHT22;23441;50.856;6.076;2023-12-07T13:31:38;4.30;99.90
37594;DHT22;23441;50.856;6.076;2023-12-07T13:34:24;4.20;99.90
37594;DHT22;23441;50.856;6.076;2023-12-07T13:37:11;4.20;99.90
37594;DHT22;23441;50.856;6.076;2023-12-07T13:39:57;4.10;99.90
37594;DHT22;23441;50.856;6.076;2023-12-07T13:42:45;4.10;99.90
37594;DHT22;23441;50.856;6.076;2023-12-07T13:45:31;4.10;99.90
37594;DHT22;23441;50.856;6.076;2023-12-07T13:48:18;4.10;99.90
37594;DHT22;23441;50.856;6.076;2023-12-07T13:51:04;4.10;99.90
37594;DHT22;23441;50.856;6.076;2023-12-07T13:53:50;4.10;99.90
37594;DHT22;23441;50.856;6.076;2023-12-07T13:56:41;4.00;99.90
37594;DHT22;23441;50.856;6.076;2023-12-07T13:59:27;4.10;99.90
37594;DHT22;23441;50.856;6.076;2023-12-07T14:02:13;4.10;99.90
37594;DHT22;23441;50.856;6.076;2023-12-07T14:04:59;4.00;99.90
37594;DHT22;23441;50.856;6.076;2023-12-07T14:07:45;3.80;99.90
37594;DHT22;23441;50.856;6.076;2023-12-07T14:10:31;3.80;99.90
37594;DHT22;23441;50.856;6.076;2023-12-07T14:13:17;3.80;99.90
37594;DHT22;23441;50.856;6.076;2023-12-07T14:16:04;3.80;99.90
37594;DHT22;23441;50.856;6.076;2023-12-07T14:18:50;3.70;99.90
37594;DHT22;23441;50.856;6.076;2023-12-07T14:21:36;3.60;99.90
37594;DHT22;23441;50.856;6.076;2023-12-07T14:24:23;3.70;99.90
37594;DHT22;23441;50.856;6.076;2023-12-07T14:27:09;3.70;99.90
37594;DHT22;23441;50.856;6.076;2023-12-07T14:29:55;3.70;99.90
37594;DHT22;23441;50.856;6.076;2023-12-07T14:32:41;3.70;99.90
37594;DHT22;23441;50.856;6.076;2023-12-07T14:35:29;3.70;99.90
37594;DHT22;23441;50.856;6.076;2023-12-07T14:38:15;3.70;99.90
37594;DHT22;23441;50.856;6.076;2023-12-07T14:41:01;3.70;99.90
37594;DHT22;23441;50.856;6.076;2023-12-07T14:43:49;3.60;99.90
37594;DHT22;23441;50.856;6.076;2023-12-07T14:46:35;3.60;99.90
37594;DHT22;23441;50.856;6.076;2023-12-07T14:49:22;3.60;99.90
37594;DHT22;23441;50.856;6.076;2023-12-07T14:52:09;3.60;99.90
37594;DHT22;23441;50.856;6.076;2023-12-07T14:54:54;3.50;99.90
37594;DHT22;23441;50.856;6.076;2023-12-07T14:57:40;3.40;99.90
37594;DHT22;23441;50.856;6.076;2023-12-07T15:00:26;3.40;99.90
37594;DHT22;23441;50.856;6.076;2023-12-07T15:03:14;3.40;99.90
37594;DHT22;23441;50.856;6.076;2023-12-07T15:06:00;3.40;99.90
37594;DHT22;23441;50.856;6.076;2023-12-07T15:08:46;3.30;99.90
37594;DHT22;23441;50.856;6.076;2023-12-07T15:11:35;3.30;99.90
37594;DHT22;23441;50.856;6.076;2023-12-07T15:14:21;3.20;99.90
37594;DHT22;23441;50.856;6.076;2023-12-07T15:17:07;3.20;99.90
37594;DHT22;23441;50.856;6.076;2023-12-07T15:19:53;3.10;99.90
37594;DHT22;23441;50.856;6.076;2023-12-07T15:22:39;3.00;99.90
37594;DHT22;23441;50.856;6.076;2023-12-07T15:25:27;2.90;99.90
37594;DHT22;23441;50.856;6.076;2023-12-07T15:28:14;2.90;99.90
37594;DHT22;23441;50.856;6.076;2023-12-07T15:31:00;2.80;99.90
37594;DHT22;23441;50.856;6.076;2023-12-07T15:33:46;2.80;99.90
37594;DHT22;23441;50.856;6.076;2023-12-07T15:36:32;2.70;99.90
37594;DHT22;23441;50.856;6.076;2023-12-07T15:39:18;2.60;99.90
37594;DHT22;23441;50.856;6.076;2023-12-07T15:42:04;2.60;99.90
37594;DHT22;23441;50.856;6.076;2023-12-07T15:44:50;2.50;99.90
37594;DHT22;23441;50.856;6.076;2023-12-07T15:47:36;2.50;99.90
37594;DHT22;23441;50.856;6.076;2023-12-07T15:50:22;2.50;99.90
37594;DHT22;23441;50.856;6.076;2023-12-07T15:53:08;2.40;99.90
37594;DHT22;23441;50.856;6.076;2023-12-07T15:55:54;2.40;99.90
37594;DHT22;23441;50.856;6.076;2023-12-07T15:58:40;2.30;99.90
37594;DHT22;23441;50.856;6.076;2023-12-07T16:01:26;2.30;99.90
37594;DHT22;23441;50.856;6.076;2023-12-07T16:04:11;2.30;99.90
37594;DHT22;23441;50.856;6.076;2023-12-07T16:07:02;2.20;99.90
37594;DHT22;23441;50.856;6.076;2023-12-07T16:09:49;2.20;99.90
37594;DHT22;23441;50.856;6.076;2023-12-07T16:12:36;2.20;99.90
37594;DHT22;23441;50.856;6.076;2023-12-07T16:15:21;2.20;99.90
37594;DHT22;23441;50.856;6.076;2023-12-07T16:18:07;2.20;99.90
37594;DHT22;23441;50.856;6.076;2023-12-07T16:20:53;2.10;99.90
37594;DHT22;23441;50.856;6.076;2023-12-07T16:23:39;2.10;99.90
37594;DHT22;23441;50.856;6.076;2023-12-07T16:26:25;2.10;99.90
37594;DHT22;23441;50.856;6.076;2023-12-07T16:29:11;2.10;99.90
37594;DHT22;23441;50.856;6.076;2023-12-07T16:31:57;2.00;99.90
37594;DHT22;23441;50.856;6.076;2023-12-07T16:34:43;2.00;99.90
37594;DHT22;23441;50.856;6.076;2023-12-07T16:37:32;2.00;99.90
37594;DHT22;23441;50.856;6.076;2023-12-07T16:40:19;2.00;99.90
37594;DHT22;23441;50.856;6.076;2023-12-07T16:43:05;1.90;99.90
37594;DHT22;23441;50.856;6.076;2023-12-07T16:45:51;1.90;99.90
37594;DHT22;23441;50.856;6.076;2023-12-07T16:48:37;1.90;99.90
37594;DHT22;23441;50.856;6.076;2023-12-07T16:51:23;1.90;99.90
37594;DHT22;23441;50.856;6.076;2023-12-07T16:54:09;1.90;99.90
37594;DHT22;23441;50.856;6.076;2023-12-07T16:56:54;1.90;99.90
37594;DHT22;23441;50.856;6.076;2023-12-07T16:59:40;1.90;99.90
37594;DHT22;23441;50.856;6.076;2023-12-07T17:02:26;1.90;99.90
37594;DHT22;23441;50.856;6.076;2023-12-07T17:05:12;2.00;99.90
37594;DHT22;23441;50.856;6.076;2023-12-07T17:07:58;2.00;99.90
37594;DHT22;23441;50.856;6.076;2023-12-07T17:10:44;1.90;99.90
37594;DHT22;23441;50.856;6.076;2023-12-07T17:13:30;1.90;99.90
37594;DHT22;23441;50.856;6.076;2023-12-07T17:16:16;1.90;99.90
37594;DHT22;23441;50.856;6.076;2023-12-07T17:19:03;1.90;99.90
37594;DHT22;23441;50.856;6.076;2023-12-07T17:21:50;1.80;99.90
37594;DHT22;23441;50.856;6.076;2023-12-07T17:24:36;1.90;99.90
37594;DHT22;23441;50.856;6.076;2023-12-07T17:27:22;1.90;99.90
37594;DHT22;23441;50.856;6.076;2023-12-07T17:30:09;1.80;99.90
37594;DHT22;23441;50.856;6.076;2023-12-07T17:32:55;1.80;99.90
37594;DHT22;23441;50.856;6.076;2023-12-07T17:35:41;1.70;99.90
37594;DHT22;23441;50.856;6.076;2023-12-07T17:38:26;1.70;99.90
37594;DHT22;23441;50.856;6.076;2023-12-07T17:41:12;1.60;99.90
37594;DHT22;23441;50.856;6.076;2023-12-07T17:43:58;1.50;99.90
37594;DHT22;23441;50.856;6.076;2023-12-07T17:46:46;1.40;99.90
37594;DHT22;23441;50.856;6.076;2023-12-07T17:49:32;1.40;99.90
37594;DHT22;23441;50.856;6.076;2023-12-07T17:52:18;1.40;99.90